sensor_id;sensor_type;location;lat;lon;timestamp;temperature;humidity
14775;DHT22;7479;47.042;15.160;2023-06-22T05:24:22;20.90;99.90
14775;DHT22;7479;47.042;15.160;2023-06-22T05:29:15;21.00;99.90
14775;DHT22;7479;47.042;15.160;2023-06-22T05:34:08;21.00;99.90
14775;DHT22;7479;47.042;15.160;2023-06-22T05:39:11;20.90;99.90
14775;DHT22;7479;47.042;15.160;2023-06-22T05:44:07;21.10;99.90
14775;DHT22;7479;47.042;15.160;2023-06-22T06:03:58;21.80;99.90
14775;DHT22;7479;47.042;15.160;2023-06-22T06:08:51;22.00;99.90
14775;DHT22;7479;47.042;15.160;2023-06-22T06:13:44;22.20;99.90
14775;DHT22;7479;47.042;15.160;2023-06-22T06:18:38;22.40;99.90
14775;DHT22;7479;47.042;15.160;2023-06-22T06:23:33;22.50;99.90
14775;DHT22;7479;47.042;15.160;2023-06-22T06:28:26;22.60;99.90
14775;DHT22;7479;47.042;15.160;2023-06-22T06:33:20;22.70;99.90
14775;DHT22;7479;47.042;15.160;2023-06-22T06:38:16;22.90;99.90
14775;DHT22;7479;47.042;15.160;2023-06-22T06:43:11;23.00;99.90
14775;DHT22;7479;47.042;15.160;2023-06-22T06:48:05;23.10;99.90
14775;DHT22;7479;47.042;15.160;2023-06-22T06:52:59;23.30;99.90
14775;DHT22;7479;47.042;15.160;2023-06-22T06:57:52;23.50;99.90
14775;DHT22;7479;47.042;15.160;2023-06-22T07:02:47;23.70;99.90
14775;DHT22;7479;47.042;15.160;2023-06-22T07:07:41;23.90;99.90
14775;DHT22;7479;47.042;15.160;2023-06-22T07:12:35;24.20;99.90
14775;DHT22;7479;47.042;15.160;2023-06-22T07:17:28;24.40;99.90
14775;DHT22;7479;47.042;15.160;2023-06-22T07:22:24;24.60;99.90
14775;DHT22;7479;47.042;15.160;2023-06-22T07:27:17;24.80;99.90
14775;DHT22;7479;47.042;15.160;2023-06-22T07:32:11;25.10;99.90
14775;DHT22;7479;47.042;15.160;2023-06-22T07:37:05;25.40;99.90
14775;DHT22;7479;47.042;15.160;2023-06-22T07:42:00;25.50;99.90
14775;DHT22;7479;47.042;15.160;2023-06-22T07:46:54;25.80;99.90
14775;DHT22;7479;47.042;15.160;2023-06-22T07:51:47;26.00;99.90
14775;DHT22;7479;47.042;15.160;2023-06-22T07:56:41;26.20;99.90
14775;DHT22;7479;47.042;15.160;2023-06-22T08:01:36;26.40;99.90
14775;DHT22;7479;47.042;15.160;2023-06-22T08:06:30;26.60;99.90
14775;DHT22;7479;47.042;15.160;2023-06-22T08:11:23;26.80;99.90
14775;DHT22;7479;47.042;15.160;2023-06-22T08:16:17;27.00;99.90
14775;DHT22;7479;47.042;15.160;2023-06-22T08:21:12;27.20;99.90
14775;DHT22;7479;47.042;15.160;2023-06-22T08:26:06;27.40;99.90
14775;DHT22;7479;47.042;15.160;2023-06-22T08:30:59;27.50;99.90
14775;DHT22;7479;47.042;15.160;2023-06-22T08:35:53;27.60;99.90
14775;DHT22;7479;47.042;15.160;2023-06-22T08:40:48;27.80;99.90
14775;DHT22;7479;47.042;15.160;2023-06-22T08:45:42;27.90;99.90
14775;DHT22;7479;47.042;15.160;2023-06-22T08:50:36;28.10;99.90
14775;DHT22;7479;47.042;15.160;2023-06-22T08:55:30;28.10;99.90
14775;DHT22;7479;47.042;15.160;2023-06-22T09:00:26;28.30;99.90
14775;DHT22;7479;47.042;15.160;2023-06-22T09:05:21;28.70;99.90
14775;DHT22;7479;47.042;15.160;2023-06-22T09:10:15;28.80;99.90
14775;DHT22;7479;47.042;15.160;2023-06-22T09:15:09;28.90;99.90
14775;DHT22;7479;47.042;15.160;2023-06-22T09:20:09;29.20;99.90
14775;DHT22;7479;47.042;15.160;2023-06-22T09:25:04;29.50;99.90
14775;DHT22;7479;47.042;15.160;2023-06-22T09:29:59;29.80;99.90
14775;DHT22;7479;47.042;15.160;2023-06-22T09:34:52;29.70;99.90
14775;DHT22;7479;47.042;15.160;2023-06-22T09:39:47;29.70;99.90
14775;DHT22;7479;47.042;15.160;2023-06-22T09:44:41;29.80;99.90
14775;DHT22;7479;47.042;15.160;2023-06-22T09:49:34;30.10;99.90
14775;DHT22;7479;47.042;15.160;2023-06-22T09:54:39;30.20;99.90
14775;DHT22;7479;47.042;15.160;2023-06-22T09:59:34;30.40;99.90
14775;DHT22;7479;47.042;15.160;2023-06-22T10:04:28;30.80;99.90
14775;DHT22;7479;47.042;15.160;2023-06-22T10:09:22;30.90;99.90
14775;DHT22;7479;47.042;15.160;2023-06-22T10:14:15;30.90;99.90
14775;DHT22;7479;47.042;15.160;2023-06-22T10:19:10;31.10;99.90
14775;DHT22;7479;47.042;15.160;2023-06-22T10:24:04;31.30;99.90
14775;DHT22;7479;47.042;15.160;2023-06-22T10:28:59;31.70;99.80
14775;DHT22;7479;47.042;15.160;2023-06-22T10:33:58;31.90;99.90
14775;DHT22;7479;47.042;15.160;2023-06-22T10:38:53;31.90;99.60
14775;DHT22;7479;47.042;15.160;2023-06-22T10:43:47;31.90;98.50
14775;DHT22;7479;47.042;15.160;2023-06-22T10:48:41;32.40;98.40
14775;DHT22;7479;47.042;15.160;2023-06-22T10:53:34;32.60;97.00
14775;DHT22;7479;47.042;15.160;2023-06-22T10:58:29;32.70;95.40
14775;DHT22;7479;47.042;15.160;2023-06-22T11:03:22;32.80;96.90
14775;DHT22;7479;47.042;15.160;2023-06-22T11:08:16;32.60;96.90
14775;DHT22;7479;47.042;15.160;2023-06-22T11:13:09;32.80;97.10
14775;DHT22;7479;47.042;15.160;2023-06-22T11:18:05;32.90;97.30
14775;DHT22;7479;47.042;15.160;2023-06-22T11:22:59;33.30;96.80
14775;DHT22;7479;47.042;15.160;2023-06-22T11:27:52;32.90;96.50
14775;DHT22;7479;47.042;15.160;2023-06-22T11:32:46;33.20;96.40
14775;DHT22;7479;47.042;15.160;2023-06-22T11:37:41;33.80;95.20
14775;DHT22;7479;47.042;15.160;2023-06-22T11:42:37;34.40;93.80
14775;DHT22;7479;47.042;15.160;2023-06-22T11:47:30;34.70;92.60
14775;DHT22;7479;47.042;15.160;2023-06-22T11:52:24;34.60;92.60
14775;DHT22;7479;47.042;15.160;2023-06-22T11:57:19;34.60;91.90
14775;DHT22;7479;47.042;15.160;2023-06-22T12:02:13;34.80;91.60
14775;DHT22;7479;47.042;15.160;2023-06-22T12:07:06;34.70;91.90
14775;DHT22;7479;47.042;15.160;2023-06-22T12:12:00;34.70;92.30
14775;DHT22;7479;47.042;15.160;2023-06-22T12:16:55;34.90;91.90
14775;DHT22;7479;47.042;15.160;2023-06-22T12:21:49;35.00;92.10
14775;DHT22;7479;47.042;15.160;2023-06-22T12:26:42;34.70;92.30
14775;DHT22;7479;47.042;15.160;2023-06-22T12:31:36;34.60;93.30
14775;DHT22;7479;47.042;15.160;2023-06-22T12:36:32;35.00;92.80
14775;DHT22;7479;47.042;15.160;2023-06-22T12:41:26;35.50;91.90
14775;DHT22;7479;47.042;15.160;2023-06-22T12:46:19;35.70;91.10
14775;DHT22;7479;47.042;15.160;2023-06-22T12:51:20;35.90;90.70
14775;DHT22;7479;47.042;15.160;2023-06-22T12:56:16;35.70;90.60
14775;DHT22;7479;47.042;15.160;2023-06-22T13:01:10;35.30;90.70
14775;DHT22;7479;47.042;15.160;2023-06-22T13:06:03;35.00;91.30
14775;DHT22;7479;47.042;15.160;2023-06-22T13:10:57;35.00;90.60
14775;DHT22;7479;47.042;15.160;2023-06-22T13:15:51;35.50;90.20
14775;DHT22;7479;47.042;15.160;2023-06-22T13:20:46;35.70;90.10
14775;DHT22;7479;47.042;15.160;2023-06-22T13:25:39;35.90;88.80
14775;DHT22;7479;47.042;15.160;2023-06-22T13:30:33;36.00;88.60
14775;DHT22;7479;47.042;15.160;2023-06-22T13:35:27;36.10;86.30
14775;DHT22;7479;47.042;15.160;2023-06-22T13:40:21;36.40;85.20
14775;DHT22;7479;47.042;15.160;2023-06-22T13:45:15;36.60;83.80
14775;DHT22;7479;47.042;15.160;2023-06-22T13:50:09;36.40;83.90
14775;DHT22;7479;47.042;15.160;2023-06-22T13:55:06;36.50;84.80
14775;DHT22;7479;47.042;15.160;2023-06-22T14:00:00;36.60;83.60
14775;DHT22;7479;47.042;15.160;2023-06-22T14:05:02;36.90;85.20
14775;DHT22;7479;47.042;15.160;2023-06-22T14:09:56;36.90;83.00
14775;DHT22;7479;47.042;15.160;2023-06-22T14:14:51;37.00;85.10
14775;DHT22;7479;47.042;15.160;2023-06-22T14:19:45;37.30;82.90
14775;DHT22;7479;47.042;15.160;2023-06-22T14:24:39;37.40;82.70
14775;DHT22;7479;47.042;15.160;2023-06-22T14:29:32;37.70;82.50
14775;DHT22;7479;47.042;15.160;2023-06-22T14:34:27;37.80;81.30
14775;DHT22;7479;47.042;15.160;2023-06-22T14:39:21;37.40;81.20
14775;DHT22;7479;47.042;15.160;2023-06-22T14:44:15;37.40;83.50
14775;DHT22;7479;47.042;15.160;2023-06-22T14:49:08;37.60;82.30
14775;DHT22;7479;47.042;15.160;2023-06-22T14:54:03;37.80;81.50
14775;DHT22;7479;47.042;15.160;2023-06-22T14:58:56;37.40;83.80
14775;DHT22;7479;47.042;15.160;2023-06-22T15:03:50;36.90;85.40
14775;DHT22;7479;47.042;15.160;2023-06-22T15:08:43;36.70;86.40
14775;DHT22;7479;47.042;15.160;2023-06-22T15:13:40;36.50;87.70
14775;DHT22;7479;47.042;15.160;2023-06-22T15:18:35;35.90;89.60
14775;DHT22;7479;47.042;15.160;2023-06-22T15:23:29;35.80;90.40
14775;DHT22;7479;47.042;15.160;2023-06-22T15:28:22;35.80;90.50
14775;DHT22;7479;47.042;15.160;2023-06-22T15:33:18;35.80;90.70
14775;DHT22;7479;47.042;15.160;2023-06-22T15:38:11;35.50;91.50
14775;DHT22;7479;47.042;15.160;2023-06-22T15:43:05;35.50;91.70
14775;DHT22;7479;47.042;15.160;2023-06-22T15:47:58;35.50;91.20
14775;DHT22;7479;47.042;15.160;2023-06-22T15:52:53;35.10;91.80
14775;DHT22;7479;47.042;15.160;2023-06-22T15:57:47;35.00;92.20
14775;DHT22;7479;47.042;15.160;2023-06-22T16:02:40;35.20;92.00
14775;DHT22;7479;47.042;15.160;2023-06-22T16:07:34;35.50;91.90
14775;DHT22;7479;47.042;15.160;2023-06-22T16:12:29;35.70;91.30
14775;DHT22;7479;47.042;15.160;2023-06-22T16:17:22;35.80;91.50
14775;DHT22;7479;47.042;15.160;2023-06-22T16:22:18;35.70;91.10
14775;DHT22;7479;47.042;15.160;2023-06-22T16:27:12;35.80;91.20
14775;DHT22;7479;47.042;15.160;2023-06-22T16:32:08;35.50;91.50
14775;DHT22;7479;47.042;15.160;2023-06-22T16:37:02;35.50;91.60
14775;DHT22;7479;47.042;15.160;2023-06-22T16:41:55;35.60;91.80
14775;DHT22;7479;47.042;15.160;2023-06-22T16:46:48;35.10;92.40
14775;DHT22;7479;47.042;15.160;2023-06-22T16:51:43;34.10;93.30
14775;DHT22;7479;47.042;15.160;2023-06-22T16:56:37;33.30;94.40
14775;DHT22;7479;47.042;15.160;2023-06-22T17:01:32;32.70;95.70
14775;DHT22;7479;47.042;15.160;2023-06-22T17:06:27;32.40;96.30
14775;DHT22;7479;47.042;15.160;2023-06-22T17:11:21;32.20;96.90
14775;DHT22;7479;47.042;15.160;2023-06-22T17:16:16;32.00;97.40
14775;DHT22;7479;47.042;15.160;2023-06-22T17:21:11;31.80;97.60
14775;DHT22;7479;47.042;15.160;2023-06-22T17:26:06;31.60;98.40
14775;DHT22;7479;47.042;15.160;2023-06-22T17:31:10;31.40;99.00
14775;DHT22;7479;47.042;15.160;2023-06-22T17:36:08;31.30;99.90
14775;DHT22;7479;47.042;15.160;2023-06-22T17:41:03;31.20;99.90
14775;DHT22;7479;47.042;15.160;2023-06-22T17:46:00;31.20;99.90
14775;DHT22;7479;47.042;15.160;2023-06-22T17:50:55;31.00;99.90
14775;DHT22;7479;47.042;15.160;2023-06-22T17:55:52;30.80;99.90
14775;DHT22;7479;47.042;15.160;2023-06-22T18:00:47;30.40;99.90
14775;DHT22;7479;47.042;15.160;2023-06-22T18:05:45;30.20;99.90
14775;DHT22;7479;47.042;15.160;2023-06-22T18:10:42;30.00;99.90
14775;DHT22;7479;47.042;15.160;2023-06-22T18:15:37;29.60;99.90
14775;DHT22;7479;47.042;15.160;2023-06-22T18:20:31;29.30;99.90
14775;DHT22;7479;47.042;15.160;2023-06-22T18:25:31;29.00;99.90
14775;DHT22;7479;47.042;15.160;2023-06-22T18:30:28;29.00;99.90
14775;DHT22;7479;47.042;15.160;2023-06-22T18:35:22;28.90;99.90
14775;DHT22;7479;47.042;15.160;2023-06-22T18:40:15;28.90;99.90
14775;DHT22;7479;47.042;15.160;2023-06-22T18:45:22;28.70;99.90
14775;DHT22;7479;47.042;15.160;2023-06-22T18:50:34;28.60;99.90
14775;DHT22;7479;47.042;15.160;2023-06-22T18:55:30;28.50;99.90
14775;DHT22;7479;47.042;15.160;2023-06-22T19:00:30;28.30;99.90
14775;DHT22;7479;47.042;15.160;2023-06-22T19:05:39;28.20;99.90
14775;DHT22;7479;47.042;15.160;2023-06-22T19:10:39;28.10;99.90
14775;DHT22;7479;47.042;15.160;2023-06-22T19:15:36;27.90;99.90
14775;DHT22;7479;47.042;15.160;2023-06-22T19:20:32;27.70;99.90
14775;DHT22;7479;47.042;15.160;2023-06-22T19:25:29;27.60;99.90
14775;DHT22;7479;47.042;15.160;2023-06-22T19:30:28;27.40;99.90
14775;DHT22;7479;47.042;15.160;2023-06-22T19:35:21;27.40;99.90
14775;DHT22;7479;47.042;15.160;2023-06-22T19:40:16;27.50;99.90
14775;DHT22;7479;47.042;15.160;2023-06-22T19:45:16;27.50;99.90
14775;DHT22;7479;47.042;15.160;2023-06-22T19:50:10;27.40;99.90
14775;DHT22;7479;47.042;15.160;2023-06-22T19:55:08;27.30;99.90
14775;DHT22;7479;47.042;15.160;2023-06-22T20:00:07;27.30;99.90
14775;DHT22;7479;47.042;15.160;2023-06-22T20:05:10;27.20;99.90
14775;DHT22;7479;47.042;15.160;2023-06-22T20:10:10;27.20;99.90
14775;DHT22;7479;47.042;15.160;2023-06-22T20:15:14;27.10;99.90
14775;DHT22;7479;47.042;15.160;2023-06-22T20:20:18;27.00;99.90
14775;DHT22;7479;47.042;15.160;2023-06-22T20:25:12;27.00;99.90
14775;DHT22;7479;47.042;15.160;2023-06-22T20:30:13;26.90;99.90
14775;DHT22;7479;47.042;15.160;2023-06-22T20:35:08;26.80;99.90
14775;DHT22;7479;47.042;15.160;2023-06-22T20:40:02;26.60;99.90
14775;DHT22;7479;47.042;15.160;2023-06-22T20:44:57;26.40;99.90
14775;DHT22;7479;47.042;15.160;2023-06-22T20:49:50;26.20;99.90
14775;DHT22;7479;47.042;15.160;2023-06-22T20:54:45;26.20;99.90
14775;DHT22;7479;47.042;15.160;2023-06-22T20:59:39;26.20;99.90
14775;DHT22;7479;47.042;15.160;2023-06-22T21:04:32;26.10;99.90
14775;DHT22;7479;47.042;15.160;2023-06-22T21:09:29;26.10;99.90
14775;DHT22;7479;47.042;15.160;2023-06-22T21:14:38;26.00;99.90
14775;DHT22;7479;47.042;15.160;2023-06-22T21:19:32;26.00;99.90
14775;DHT22;7479;47.042;15.160;2023-06-22T21:24:25;26.00;99.90
